createdAt,value
2022-09-23T00:01:05.161Z,61.80
2022-09-23T00:03:32.400Z,61.95
2022-09-23T00:06:01.175Z,62.68
2022-09-23T00:08:28.897Z,62.07
2022-09-23T00:10:56.032Z,62.51
2022-09-23T00:13:25.501Z,62.20
2022-09-23T00:15:52.309Z,62.69
2022-09-23T00:18:19.307Z,62.67
2022-09-23T00:20:45.763Z,62.11
2022-09-23T00:23:12.612Z,62.48
2022-09-23T00:25:39.068Z,62.67
2022-09-23T00:28:05.504Z,63.11
2022-09-23T00:30:32.001Z,63.41
2022-09-23T00:32:58.458Z,63.22
2022-09-23T00:35:24.912Z,63.80
2022-09-23T00:37:51.491Z,63.35
2022-09-23T00:40:18.080Z,63.96
2022-09-23T00:42:49.600Z,64.32
2022-09-23T00:45:19.412Z,64.63
2022-09-23T00:48:01.736Z,65.81
2022-09-23T00:50:34.643Z,65.47
2022-09-23T00:53:06.529Z,65.25
2022-09-23T00:55:34.399Z,64.88
2022-09-23T00:58:04.592Z,65.11
2022-09-23T01:00:31.204Z,65.00
2022-09-23T01:02:57.653Z,64.90
2022-09-23T01:05:24.123Z,64.70
2022-09-23T01:07:50.973Z,65.14
2022-09-23T01:10:17.963Z,65.51
2022-09-23T01:13:16.175Z,65.49
2022-09-23T01:15:57.590Z,65.99
2022-09-23T01:19:06.426Z,65.70
2022-09-23T01:21:44.204Z,65.47
2022-09-23T01:24:37.578Z,65.88
2022-09-23T01:27:22.940Z,65.76
2022-09-23T01:30:31.262Z,66.34
2022-09-23T01:33:12.838Z,66.55
2022-09-23T01:35:57.649Z,66.44
2022-09-23T01:38:34.332Z,66.32
2022-09-23T01:41:35.340Z,65.82
2022-09-23T01:44:29.665Z,66.62
2022-09-23T01:47:08.112Z,66.38
2022-09-23T01:50:03.204Z,66.28
2022-09-23T01:52:44.471Z,66.53
2022-09-23T01:55:18.348Z,66.54
2022-09-23T01:57:53.077Z,66.37
2022-09-23T02:00:23.901Z,66.69
2022-09-23T02:03:07.119Z,66.64
2022-09-23T02:05:38.908Z,66.50
2022-09-23T02:09:00.914Z,66.63
2022-09-23T02:11:27.960Z,66.54
2022-09-23T02:14:22.295Z,66.10
2022-09-23T02:16:53.887Z,66.78
2022-09-23T02:19:44.392Z,66.20
2022-09-23T02:22:28.095Z,66.24
2022-09-23T02:24:57.592Z,66.12
2022-09-23T02:27:29.703Z,66.39
2022-09-23T02:30:09.654Z,66.71
2022-09-23T02:32:52.962Z,66.68
2022-09-23T02:35:34.778Z,67.13
2022-09-23T02:38:43.552Z,67.42
2022-09-23T02:41:25.391Z,67.38
2022-09-23T02:44:08.699Z,67.46
2022-09-23T02:46:36.755Z,67.92
2022-09-23T02:49:11.891Z,67.53
2022-09-23T02:51:41.616Z,67.62
2022-09-23T02:54:13.161Z,67.58
2022-09-23T02:56:40.570Z,67.39
2022-09-23T02:59:09.730Z,67.02
2022-09-23T03:01:57.036Z,67.43
2022-09-23T03:04:35.646Z,68.22
2022-09-23T03:07:23.531Z,68.47
2022-09-23T03:10:04.212Z,68.88
2022-09-23T03:12:55.953Z,68.68
2022-09-23T03:15:30.718Z,68.53
2022-09-23T03:18:17.307Z,68.52
2022-09-23T03:20:57.996Z,68.66
2022-09-23T03:23:33.021Z,68.28
2022-09-23T03:26:07.650Z,68.79
2022-09-23T03:28:42.184Z,69.05
2022-09-23T03:31:10.121Z,68.93
2022-09-23T03:33:41.891Z,68.63
2022-09-23T03:36:14.370Z,68.51
2022-09-23T03:38:48.656Z,68.50
2022-09-23T03:41:26.813Z,68.38
2022-09-23T03:43:53.700Z,68.38
2022-09-23T03:46:20.134Z,68.55
2022-09-23T03:48:46.613Z,68.83
2022-09-23T03:51:22.486Z,68.74
2022-09-23T03:53:50.429Z,68.73
2022-09-23T03:56:16.977Z,68.37
2022-09-23T03:58:43.494Z,68.89
2022-09-23T04:01:09.970Z,69.33
2022-09-23T04:03:36.447Z,69.26
2022-09-23T04:06:02.894Z,69.31
2022-09-23T04:08:29.332Z,69.09
2022-09-23T04:11:00.356Z,69.24
2022-09-23T04:13:34.891Z,69.11
2022-09-23T04:16:01.647Z,68.87
2022-09-23T04:18:28.171Z,68.86
2022-09-23T04:20:59.024Z,68.96
2022-09-23T04:23:26.957Z,69.47
2022-09-23T04:25:53.812Z,69.74
2022-09-23T04:28:21.900Z,69.59
2022-09-23T04:30:49.009Z,70.33
2022-09-23T04:33:16.588Z,70.00
2022-09-23T04:35:43.258Z,69.88
2022-09-23T04:38:12.234Z,69.55
2022-09-23T04:40:39.032Z,69.07
2022-09-23T04:43:05.562Z,69.47
2022-09-23T04:45:32.049Z,69.87
2022-09-23T04:47:58.538Z,70.13
2022-09-23T04:50:26.164Z,69.88
2022-09-23T04:52:53.404Z,69.19
2022-09-23T04:55:20.388Z,69.74
2022-09-23T04:57:47.018Z,70.06
2022-09-23T05:00:14.251Z,70.42
2022-09-23T05:02:48.813Z,70.20
2022-09-23T05:05:16.768Z,70.22
2022-09-23T05:07:43.203Z,69.52
2022-09-23T05:10:09.754Z,71.79
2022-09-23T05:12:36.210Z,71.14
2022-09-23T05:15:02.852Z,71.53
2022-09-23T05:17:29.302Z,70.82
2022-09-23T05:19:55.765Z,70.21
2022-09-23T05:22:22.234Z,70.14
2022-09-23T05:24:48.698Z,69.68
2022-09-23T05:27:15.154Z,69.54
2022-09-23T05:29:41.612Z,69.92
2022-09-23T05:32:08.064Z,69.45
2022-09-23T05:34:34.524Z,69.20
2022-09-23T05:37:01.221Z,69.45
2022-09-23T05:39:27.664Z,69.46
2022-09-23T05:41:54.103Z,69.16
2022-09-23T05:44:20.825Z,69.32
2022-09-23T05:46:47.543Z,68.79
2022-09-23T05:49:14.033Z,68.84
2022-09-23T05:51:40.484Z,68.51
2022-09-23T05:54:07.164Z,69.12
2022-09-23T05:56:34.636Z,68.52
2022-09-23T05:59:02.351Z,69.00
2022-09-23T06:01:32.752Z,68.93
2022-09-23T06:04:00.466Z,68.56
2022-09-23T06:06:28.771Z,69.21
2022-09-23T06:08:55.301Z,69.01
2022-09-23T06:11:21.983Z,69.35
2022-09-23T06:13:48.416Z,68.84
2022-09-23T06:16:16.284Z,68.74
2022-09-23T06:18:45.159Z,68.59
2022-09-23T06:21:16.625Z,69.08
2022-09-23T06:23:44.653Z,68.76
2022-09-23T06:26:14.071Z,68.86
2022-09-23T06:28:42.025Z,69.06
2022-09-23T06:31:13.737Z,68.32
2022-09-23T06:33:42.301Z,67.98
2022-09-23T06:36:10.308Z,68.35
2022-09-23T06:38:41.811Z,68.58
2022-09-23T06:41:08.237Z,67.91
2022-09-23T06:43:34.711Z,68.42
2022-09-23T06:46:04.066Z,68.05
2022-09-23T06:48:32.369Z,68.09
2022-09-23T06:51:00.527Z,67.81
2022-09-23T06:53:26.976Z,67.39
2022-09-23T06:56:03.628Z,67.52
2022-09-23T06:58:31.747Z,67.67
2022-09-23T07:01:07.733Z,67.18
2022-09-23T07:03:35.508Z,69.84
2022-09-23T07:06:02.356Z,69.30
2022-09-23T07:08:30.551Z,68.91
2022-09-23T07:10:59.438Z,69.13
2022-09-23T07:13:27.192Z,67.83
2022-09-23T07:15:58.369Z,67.50
2022-09-23T07:18:26.573Z,66.48
2022-09-23T07:20:53.851Z,67.41
2022-09-23T07:23:20.725Z,66.04
2022-09-23T07:25:47.519Z,65.73
2022-09-23T07:28:13.997Z,64.20
2022-09-23T07:30:51.377Z,63.37
2022-09-23T07:33:30.499Z,62.87
2022-09-23T07:35:58.459Z,62.41
2022-09-23T07:38:25.020Z,61.58
2022-09-23T07:40:51.511Z,61.25
2022-09-23T07:43:17.992Z,60.83
2022-09-23T07:45:44.464Z,60.65
2022-09-23T07:48:10.930Z,60.09
2022-09-23T07:50:39.259Z,60.28
2022-09-23T07:53:05.695Z,59.54
2022-09-23T07:55:32.170Z,60.38
2022-09-23T07:58:00.038Z,59.47
2022-09-23T08:00:26.490Z,59.33
2022-09-23T08:02:53.295Z,58.99
2022-09-23T08:05:19.815Z,58.64
2022-09-23T08:07:46.242Z,58.62
2022-09-23T08:10:12.681Z,59.14
2022-09-23T08:12:39.190Z,59.57
2022-09-23T08:15:06.146Z,58.82
2022-09-23T08:17:32.604Z,59.20
2022-09-23T08:19:59.053Z,59.32
2022-09-23T08:22:25.531Z,58.78
2022-09-23T08:24:53.196Z,57.72
2022-09-23T08:27:20.988Z,58.36
2022-09-23T08:29:47.434Z,58.02
2022-09-23T08:32:13.867Z,57.74
2022-09-23T08:34:40.392Z,57.14
2022-09-23T08:37:10.391Z,56.92
2022-09-23T08:39:36.874Z,57.00
2022-09-23T08:42:19.529Z,58.86
2022-09-23T08:44:54.958Z,54.36
2022-09-23T08:47:32.085Z,51.62
2022-09-23T08:50:28.844Z,52.90
2022-09-23T08:52:59.736Z,52.60
2022-09-23T08:55:39.023Z,55.56
2022-09-23T08:58:33.049Z,55.51
2022-09-23T09:01:11.293Z,53.57
2022-09-23T09:04:00.948Z,52.94
2022-09-23T09:06:51.794Z,52.79
2022-09-23T09:09:25.737Z,52.96
2022-09-23T09:12:23.574Z,53.22
2022-09-23T09:15:07.427Z,52.07
2022-09-23T09:17:40.155Z,52.98
2022-09-23T09:20:15.777Z,54.93
2022-09-23T09:23:15.593Z,53.90
2022-09-23T09:25:49.386Z,52.65
2022-09-23T09:28:15.777Z,51.04
2022-09-23T09:30:48.324Z,51.66
2022-09-23T09:33:19.175Z,51.53
2022-09-23T09:36:01.475Z,50.88
2022-09-23T09:38:28.291Z,52.83
2022-09-23T09:41:01.905Z,51.85
2022-09-23T09:43:28.389Z,52.48
2022-09-23T09:46:32.690Z,50.99
2022-09-23T09:49:08.923Z,51.91
2022-09-23T09:51:35.535Z,50.84
2022-09-23T09:54:22.658Z,50.43
2022-09-23T09:56:49.398Z,50.07
2022-09-23T09:59:24.011Z,50.65
2022-09-23T10:02:21.585Z,51.70
2022-09-23T10:04:57.569Z,51.91
2022-09-23T10:07:28.172Z,52.14
2022-09-23T10:09:58.296Z,51.50
2022-09-23T10:12:46.668Z,51.43
2022-09-23T10:15:44.926Z,50.69
2022-09-23T10:18:20.095Z,48.30
2022-09-23T10:20:48.040Z,48.76
2022-09-23T10:23:28.432Z,50.10
2022-09-23T10:26:02.057Z,48.98
2022-09-23T10:28:46.864Z,51.55
2022-09-23T10:31:24.669Z,50.86
2022-09-23T10:34:03.639Z,49.53
2022-09-23T10:36:33.261Z,48.71
2022-09-23T10:39:05.033Z,48.65
2022-09-23T10:41:42.129Z,49.03
2022-09-23T10:44:20.108Z,48.89
2022-09-23T10:47:29.779Z,47.60
2022-09-23T10:50:29.475Z,47.83
2022-09-23T10:53:06.636Z,48.23
2022-09-23T10:56:01.581Z,49.43
2022-09-23T10:58:33.592Z,49.17
2022-09-23T11:01:38.795Z,49.10
2022-09-23T11:04:34.322Z,47.27
2022-09-23T11:07:27.260Z,48.83
2022-09-23T11:10:35.284Z,48.60
2022-09-23T11:13:05.494Z,47.40
2022-09-23T11:15:44.523Z,49.36
2022-09-23T11:18:28.622Z,48.48
2022-09-23T11:21:31.283Z,47.48
2022-09-23T11:24:03.704Z,47.19
2022-09-23T11:26:55.033Z,48.60
2022-09-23T11:29:36.034Z,46.99
2022-09-23T11:32:05.420Z,47.49
2022-09-23T11:34:59.280Z,47.54
2022-09-23T11:37:37.083Z,47.40
2022-09-23T11:40:35.127Z,48.16
2022-09-23T11:43:09.792Z,48.12
2022-09-23T11:45:58.744Z,47.16
2022-09-23T11:48:35.851Z,46.68
2022-09-23T11:51:14.731Z,46.33
2022-09-23T11:53:59.671Z,46.79
2022-09-23T11:56:41.627Z,46.47
2022-09-23T11:59:39.214Z,46.25
2022-09-23T12:02:31.353Z,45.46
2022-09-23T12:05:16.179Z,46.67
2022-09-23T12:07:52.221Z,46.11
2022-09-23T12:10:20.050Z,46.28
2022-09-23T12:12:52.766Z,45.66
2022-09-23T12:15:22.291Z,46.71
2022-09-23T12:18:07.808Z,47.75
2022-09-23T12:20:49.091Z,47.30
2022-09-23T12:23:21.597Z,46.92
2022-09-23T12:25:57.409Z,46.51
2022-09-23T12:28:38.494Z,45.18
2022-09-23T12:31:12.627Z,44.60
2022-09-23T12:33:40.024Z,44.26
2022-09-23T12:36:10.362Z,44.29
2022-09-23T12:38:49.294Z,43.77
2022-09-23T12:41:38.481Z,43.49
2022-09-23T12:44:07.670Z,42.93
2022-09-23T12:46:34.230Z,44.03
2022-09-23T12:49:03.317Z,43.70
2022-09-23T12:51:35.042Z,42.62
2022-09-23T12:54:04.180Z,42.44
2022-09-23T12:56:36.721Z,42.65
2022-09-23T12:59:09.100Z,43.49
2022-09-23T13:01:38.373Z,42.77
2022-09-23T13:04:05.599Z,41.89
2022-09-23T13:06:40.874Z,41.37
2022-09-23T13:09:26.319Z,40.95
2022-09-23T13:11:59.945Z,40.72
2022-09-23T13:14:29.860Z,40.42
2022-09-23T13:16:57.957Z,40.80
2022-09-23T13:19:27.048Z,40.70
2022-09-23T13:21:53.447Z,40.93
2022-09-23T13:24:22.795Z,41.53
2022-09-23T13:27:03.331Z,42.24
2022-09-23T13:29:45.117Z,42.26
2022-09-23T13:32:14.891Z,42.35
2022-09-23T13:34:44.223Z,41.85
2022-09-23T13:37:24.296Z,42.80
2022-09-23T13:39:51.209Z,42.43
2022-09-23T13:42:28.067Z,42.08
2022-09-23T13:44:57.643Z,41.41
2022-09-23T13:47:29.383Z,41.36
2022-09-23T13:49:57.276Z,40.39
2022-09-23T13:52:31.672Z,39.27
2022-09-23T13:54:58.374Z,39.84
2022-09-23T13:57:29.083Z,40.23
2022-09-23T14:00:00.820Z,40.52
2022-09-23T14:02:27.796Z,40.15
2022-09-23T14:04:57.991Z,40.43
2022-09-23T14:07:25.740Z,41.58
2022-09-23T14:09:55.511Z,41.36
2022-09-23T14:12:22.718Z,41.55
2022-09-23T14:14:52.766Z,41.86
2022-09-23T14:17:22.418Z,41.45
2022-09-23T14:19:51.572Z,42.20
2022-09-23T14:22:27.409Z,41.87
2022-09-23T14:24:56.235Z,42.66
2022-09-23T14:27:30.507Z,42.36
2022-09-23T14:29:58.649Z,41.87
2022-09-23T14:32:27.138Z,41.73
2022-09-23T14:35:16.089Z,41.19
2022-09-23T14:37:46.379Z,41.13
2022-09-23T14:40:17.872Z,41.38
2022-09-23T14:43:07.911Z,40.94
2022-09-23T14:45:38.540Z,40.20
2022-09-23T14:48:35.043Z,40.18
2022-09-23T14:51:06.044Z,41.63
2022-09-23T14:53:36.679Z,41.81
2022-09-23T14:56:05.877Z,41.16
2022-09-23T14:58:51.957Z,41.45
2022-09-23T15:01:30.824Z,41.33
2022-09-23T15:04:21.615Z,40.92
2022-09-23T15:06:51.585Z,42.06
2022-09-23T15:09:31.066Z,42.09
2022-09-23T15:12:01.819Z,41.45
2022-09-23T15:14:39.469Z,42.02
2022-09-23T15:17:35.797Z,40.94
2022-09-23T15:20:06.616Z,41.41
2022-09-23T15:22:43.939Z,41.49
2022-09-23T15:25:34.772Z,41.50
2022-09-23T15:28:10.274Z,41.91
2022-09-23T15:30:37.912Z,41.78
2022-09-23T15:33:05.191Z,42.08
2022-09-23T15:35:32.323Z,44.02
2022-09-23T15:38:01.424Z,43.76
2022-09-23T15:40:34.198Z,43.79
2022-09-23T15:43:10.269Z,44.07
2022-09-23T15:45:43.006Z,45.26
2022-09-23T15:48:24.108Z,45.73
2022-09-23T15:50:51.497Z,45.74
2022-09-23T15:53:27.281Z,45.00
2022-09-23T15:55:53.937Z,44.74
2022-09-23T15:58:22.273Z,44.39
2022-09-23T16:00:55.680Z,43.84
2022-09-23T16:03:24.280Z,43.93
2022-09-23T16:05:51.439Z,43.12
2022-09-23T16:08:17.875Z,42.81
2022-09-23T16:10:44.332Z,43.11
2022-09-23T16:13:13.069Z,43.20
2022-09-23T16:15:40.441Z,43.32
2022-09-23T16:18:09.368Z,43.42
2022-09-23T16:20:38.820Z,43.60
2022-09-23T16:23:21.884Z,43.69
2022-09-23T16:25:48.359Z,43.31
2022-09-23T16:28:14.797Z,43.23
2022-09-23T16:30:41.241Z,42.94
2022-09-23T16:33:07.690Z,42.82
2022-09-23T16:35:34.207Z,43.12
2022-09-23T16:38:00.635Z,43.24
2022-09-23T16:40:27.254Z,44.58
2022-09-23T16:42:53.760Z,44.52
2022-09-23T16:45:21.845Z,44.55
2022-09-23T16:47:50.520Z,44.46
2022-09-23T16:50:20.146Z,45.20
2022-09-23T16:52:46.647Z,46.47
2022-09-23T16:55:14.677Z,46.85
2022-09-23T16:57:41.611Z,47.43
2022-09-23T17:00:13.877Z,47.84
2022-09-23T17:02:40.405Z,48.00
2022-09-23T17:05:07.197Z,48.84
2022-09-23T17:07:33.752Z,48.71
2022-09-23T17:10:00.241Z,49.28
2022-09-23T17:12:32.726Z,49.88
2022-09-23T17:14:59.301Z,50.78
2022-09-23T17:17:25.773Z,50.84
2022-09-23T17:19:52.206Z,50.99
2022-09-23T17:22:18.707Z,52.12
2022-09-23T17:24:45.188Z,51.26
2022-09-23T17:27:11.655Z,51.10
2022-09-23T17:29:38.111Z,51.08
2022-09-23T17:32:04.557Z,51.80
2022-09-23T17:34:31.001Z,51.53
2022-09-23T17:36:57.441Z,50.72
2022-09-23T17:39:23.880Z,51.09
2022-09-23T17:41:50.322Z,51.08
2022-09-23T17:44:16.879Z,50.73
2022-09-23T17:46:43.306Z,51.08
2022-09-23T17:49:09.830Z,51.35
2022-09-23T17:51:36.465Z,53.14
2022-09-23T17:54:02.915Z,51.53
2022-09-23T17:56:29.374Z,52.57
2022-09-23T17:59:00.284Z,52.43
2022-09-23T18:01:27.192Z,52.61
2022-09-23T18:03:55.577Z,53.87
2022-09-23T18:06:24.958Z,53.48
2022-09-23T18:08:51.993Z,53.27
2022-09-23T18:11:24.478Z,53.22
2022-09-23T18:13:53.986Z,52.52
2022-09-23T18:16:23.318Z,52.46
2022-09-23T18:18:51.187Z,52.37
2022-09-23T18:21:17.680Z,51.96
2022-09-23T18:23:44.128Z,51.73
2022-09-23T18:26:20.766Z,51.38
2022-09-23T18:28:48.497Z,51.44
2022-09-23T18:31:16.088Z,51.22
2022-09-23T18:33:42.595Z,51.61
2022-09-23T18:36:09.304Z,51.25
2022-09-23T18:38:35.763Z,51.73
2022-09-23T18:41:02.324Z,51.73
2022-09-23T18:43:37.288Z,51.69
2022-09-23T18:46:10.787Z,52.03
2022-09-23T18:48:37.369Z,51.83
2022-09-23T18:51:06.290Z,52.38
2022-09-23T18:53:32.753Z,52.28
2022-09-23T18:58:25.631Z,53.01
2022-09-23T19:00:52.169Z,53.10
2022-09-23T19:03:18.704Z,53.19
2022-09-23T19:05:45.178Z,53.25
2022-09-23T19:08:11.626Z,53.91
2022-09-23T19:10:38.075Z,54.07
2022-09-23T19:13:04.518Z,53.87
2022-09-23T19:15:31.063Z,54.38
2022-09-23T19:17:57.514Z,54.50
2022-09-23T19:20:23.948Z,55.61
2022-09-23T19:22:50.391Z,55.57
2022-09-23T19:25:16.929Z,55.91
2022-09-23T19:27:43.366Z,55.27
2022-09-23T19:30:10.279Z,56.40
2022-09-23T19:32:36.718Z,56.47
2022-09-23T19:35:03.188Z,57.18
2022-09-23T19:37:29.640Z,57.47
2022-09-23T19:39:56.102Z,58.17
2022-09-23T19:42:22.568Z,57.78
2022-09-23T19:44:49.010Z,58.21
2022-09-23T19:47:15.644Z,57.64
2022-09-23T19:49:42.166Z,57.13
2022-09-23T19:52:08.635Z,57.12
2022-09-23T19:54:35.152Z,57.41
2022-09-23T19:57:01.582Z,57.41
2022-09-23T19:59:28.042Z,57.70
2022-09-23T20:01:54.565Z,56.69
2022-09-23T20:04:21.288Z,56.64
2022-09-23T20:06:47.771Z,55.88
2022-09-23T20:09:14.207Z,56.03
2022-09-23T20:11:40.738Z,56.21
2022-09-23T20:14:07.229Z,57.02
2022-09-23T20:16:35.739Z,56.04
2022-09-23T20:19:03.062Z,56.27
2022-09-23T20:21:30.398Z,55.65
2022-09-23T20:23:57.467Z,56.43
2022-09-23T20:26:24.288Z,56.59
2022-09-23T20:28:51.063Z,57.36
2022-09-23T20:31:19.420Z,57.37
2022-09-23T20:33:50.371Z,57.42
2022-09-23T20:36:16.860Z,57.13
2022-09-23T20:38:43.328Z,57.58
2022-09-23T20:41:09.891Z,57.56
2022-09-23T20:43:36.355Z,56.91
2022-09-23T20:46:04.076Z,56.77
2022-09-23T20:48:31.327Z,57.08
2022-09-23T20:51:02.190Z,56.88
2022-09-23T20:53:28.669Z,56.63
2022-09-23T20:55:57.095Z,56.21
2022-09-23T20:58:31.280Z,56.36
2022-09-23T21:01:02.061Z,55.93
2022-09-23T21:03:33.230Z,56.66
2022-09-23T21:06:01.554Z,57.33
2022-09-23T21:08:28.028Z,58.16
2022-09-23T21:10:59.418Z,57.76
2022-09-23T21:13:25.862Z,58.07
2022-09-23T21:15:52.380Z,59.28
2022-09-23T21:18:22.388Z,58.40
2022-09-23T21:20:56.978Z,58.09
2022-09-23T21:23:24.928Z,58.11
2022-09-23T21:25:51.726Z,58.32
2022-09-23T21:28:18.265Z,58.13
2022-09-23T21:30:48.517Z,58.08
2022-09-23T21:33:17.601Z,59.20
2022-09-23T21:35:44.378Z,59.17
2022-09-23T21:38:10.841Z,59.60
2022-09-23T21:40:37.333Z,59.96
2022-09-23T21:43:03.803Z,59.70
2022-09-23T21:45:30.233Z,61.35
2022-09-23T21:47:56.685Z,61.54
2022-09-23T21:50:23.116Z,60.87
2022-09-23T21:52:49.554Z,61.96
2022-09-23T21:55:16.082Z,60.99
2022-09-23T21:57:42.532Z,60.48
2022-09-23T22:00:09.480Z,59.20
2022-09-23T22:02:35.923Z,59.20
2022-09-23T22:05:02.442Z,60.18
2022-09-23T22:07:28.862Z,60.04
2022-09-23T22:09:55.326Z,60.61
2022-09-23T22:12:21.768Z,59.32
2022-09-23T22:14:48.202Z,59.01
2022-09-23T22:17:14.654Z,58.65
2022-09-23T22:19:45.944Z,59.37
2022-09-23T22:22:16.180Z,58.94
2022-09-23T22:24:44.391Z,58.57
2022-09-23T22:27:13.040Z,58.64
2022-09-23T22:29:39.662Z,60.00
2022-09-23T22:32:11.205Z,60.29
2022-09-23T22:34:49.495Z,60.90
2022-09-23T22:37:19.804Z,60.70
2022-09-23T22:39:46.988Z,61.44
2022-09-23T22:42:13.436Z,62.97
2022-09-23T22:44:39.903Z,61.42
2022-09-23T22:47:06.770Z,60.89
2022-09-23T22:49:33.318Z,61.97
2022-09-23T22:51:59.966Z,62.00
2022-09-23T22:54:33.724Z,63.71
2022-09-23T22:57:01.352Z,63.78
2022-09-23T22:59:27.908Z,63.73
2022-09-23T23:01:54.361Z,64.38
2022-09-23T23:04:20.840Z,63.26
2022-09-23T23:06:47.298Z,62.81
2022-09-23T23:09:16.530Z,64.93
2022-09-23T23:11:43.499Z,63.79
2022-09-23T23:14:10.862Z,63.00
2022-09-23T23:16:37.855Z,64.87
2022-09-23T23:19:13.013Z,63.16
2022-09-23T23:21:41.194Z,62.23
2022-09-23T23:24:15.172Z,62.96
2022-09-23T23:26:41.695Z,64.39
2022-09-23T23:29:10.995Z,64.87
2022-09-23T23:31:37.904Z,64.55
2022-09-23T23:34:04.998Z,65.08
2022-09-23T23:36:31.447Z,64.89
2022-09-23T23:38:58.268Z,64.66
2022-09-23T23:41:24.800Z,64.70
2022-09-23T23:43:59.981Z,64.85
2022-09-23T23:46:28.481Z,65.38
2022-09-23T23:48:56.453Z,66.45
2022-09-23T23:51:24.261Z,68.71
2022-09-23T23:53:50.720Z,66.60
2022-09-23T23:56:19.960Z,67.04
2022-09-23T23:58:46.511Z,65.34
